Time;durP1;ratioP1;P1;durP2;ratioP2;P2;SDS_P1;SDS_P2;PMS_P1;PMS_P2;Temp;Humidity;BMP_temperature;BMP_pressure;BME280_temperature;BME280_humidity;BME280_pressure;Samples;Min_cycle;Max_cycle;Signal;HPM_P1;HPM_P2
2022/11/24 00:00:32;;;;;;;9.77;6.27;;;5.70;99.90;;;;;;5015195;28;20173;-81
2022/11/24 00:02:59;;;;;;;8.23;5.73;;;5.80;99.90;;;;;;5014763;28;20174;-81
2022/11/24 00:05:25;;;;;;;8.37;5.90;;;5.80;99.90;;;;;;5014825;28;20172;-81
2022/11/24 00:07:50;;;;;;;9.53;6.60;;;5.80;99.90;;;;;;5014872;28;20203;-81
2022/11/24 00:10:16;;;;;;;12.57;6.60;;;5.90;99.90;;;;;;5014369;28;20201;-80
2022/11/24 00:12:42;;;;;;;10.17;6.57;;;5.80;99.90;;;;;;5014826;28;20211;-81
2022/11/24 00:15:08;;;;;;;9.03;6.97;;;5.80;99.90;;;;;;5014962;28;20182;-81
2022/11/24 00:17:33;;;;;;;8.60;6.70;;;5.90;99.90;;;;;;5014755;28;20180;-80
2022/11/24 00:19:59;;;;;;;10.43;7.20;;;5.80;99.90;;;;;;5014628;28;20196;-80
2022/11/24 00:22:24;;;;;;;8.77;7.70;;;5.90;99.90;;;;;;5014509;28;20175;-81
2022/11/24 00:24:50;;;;;;;10.13;7.57;;;5.90;99.90;;;;;;5014966;28;20179;-81
2022/11/24 00:27:15;;;;;;;12.57;8.20;;;5.90;99.90;;;;;;5016044;28;20176;-81
2022/11/24 00:29:41;;;;;;;9.57;7.33;;;5.90;99.90;;;;;;5029683;23;20320;-83
2022/11/24 00:32:06;;;;;;;12.77;7.60;;;5.90;99.90;;;;;;5009817;28;20177;-82
2022/11/24 00:34:32;;;;;;;11.17;7.83;;;5.90;99.90;;;;;;4993356;28;20178;-83
2022/11/24 00:36:58;;;;;;;11.60;7.63;;;5.90;99.90;;;;;;5009818;28;20186;-83
2022/11/24 00:39:23;;;;;;;11.57;8.00;;;5.90;99.90;;;;;;5009645;28;20223;-83
2022/11/24 00:41:49;;;;;;;16.87;8.40;;;5.90;99.90;;;;;;4994904;28;20695;-82
2022/11/24 00:44:14;;;;;;;19.13;8.37;;;6.00;99.90;;;;;;5009588;28;20179;-83
2022/11/24 00:46:40;;;;;;;15.40;8.63;;;6.00;99.90;;;;;;4993685;28;20180;-83
2022/11/24 00:49:06;;;;;;;15.10;8.47;;;6.00;99.90;;;;;;4994548;28;20610;-83
2022/11/24 00:51:32;;;;;;;11.87;7.87;;;6.00;99.90;;;;;;4994344;28;20172;-83
2022/11/24 00:53:58;;;;;;;13.73;8.40;;;6.00;99.90;;;;;;4994473;28;20188;-83
2022/11/24 00:56:25;;;;;;;14.53;8.27;;;6.00;99.90;;;;;;4994135;28;20242;-83
2022/11/24 00:58:51;;;;;;;10.80;7.67;;;6.00;99.90;;;;;;4993000;28;20196;-83
2022/11/24 01:01:20;;;;;;;11.97;7.43;;;6.00;99.90;;;;;;4994422;28;20218;-82
2022/11/24 01:03:46;;;;;;;14.13;8.30;;;6.00;99.90;;;;;;4993118;28;20177;-83
2022/11/24 01:06:14;;;;;;;12.17;7.37;;;6.00;99.90;;;;;;4993811;28;20551;-83
2022/11/24 01:08:40;;;;;;;15.50;7.40;;;6.10;99.90;;;;;;4992999;28;20207;-83
2022/11/24 01:11:13;;;;;;;13.27;6.90;;;6.10;99.90;;;;;;4994214;28;20259;-83
2022/11/24 01:13:39;;;;;;;12.17;6.33;;;6.10;99.90;;;;;;4994112;28;20263;-82
2022/11/24 01:16:05;;;;;;;11.30;7.10;;;6.20;99.90;;;;;;4992674;28;20182;-83
2022/11/24 01:18:31;;;;;;;13.87;6.33;;;6.20;99.90;;;;;;4993818;28;20174;-83
2022/11/24 01:20:56;;;;;;;9.30;6.27;;;6.20;99.90;;;;;;4994067;28;20176;-83
2022/11/24 01:23:22;;;;;;;11.93;6.87;;;6.20;99.90;;;;;;5009027;28;20189;-83
2022/11/24 01:25:47;;;;;;;11.43;6.40;;;6.20;99.90;;;;;;4993979;28;20643;-83
2022/11/24 01:28:13;;;;;;;14.03;6.53;;;6.20;99.90;;;;;;4992647;28;20254;-83
2022/11/24 01:30:39;;;;;;;12.13;6.37;;;6.20;99.90;;;;;;4992454;28;20221;-83
2022/11/24 01:33:05;;;;;;;9.17;6.47;;;6.20;99.90;;;;;;4993404;28;20678;-82
2022/11/24 01:35:30;;;;;;;9.83;6.07;;;6.20;99.90;;;;;;5008399;28;20334;-83
2022/11/24 01:37:56;;;;;;;10.90;6.33;;;6.20;99.90;;;;;;4992539;28;20181;-83
2022/11/24 01:40:21;;;;;;;12.13;6.10;;;6.20;99.90;;;;;;4992305;28;20685;-83
2022/11/24 01:42:51;;;;;;;14.37;6.80;;;6.20;99.90;;;;;;4993386;28;20781;-83
2022/11/24 01:45:39;;;;;;;10.80;6.00;;;6.20;99.90;;;;;;4992432;28;20284;-83
2022/11/24 01:48:08;;;;;;;9.80;5.80;;;6.20;99.90;;;;;;4993291;28;20245;-83
2022/11/24 01:50:35;;;;;;;9.23;5.90;;;6.20;99.90;;;;;;4993519;28;20185;-83
2022/11/24 01:53:01;;;;;;;9.10;5.50;;;6.20;99.90;;;;;;4992014;28;20207;-83
2022/11/24 01:55:32;;;;;;;9.00;5.00;;;6.20;99.90;;;;;;4992280;28;20176;-83
2022/11/24 01:58:19;;;;;;;9.40;5.13;;;6.30;99.90;;;;;;4992049;28;20181;-83
2022/11/24 02:00:45;;;;;;;8.70;4.77;;;6.30;99.90;;;;;;4991754;28;20254;-83
2022/11/24 02:03:14;;;;;;;11.50;4.67;;;6.30;99.90;;;;;;4991865;28;20216;-83
2022/11/24 02:06:26;;;;;;;11.70;5.00;;;6.40;99.90;;;;;;4991706;28;20183;-83
2022/11/24 02:08:59;;;;;;;10.77;5.40;;;6.40;99.90;;;;;;4983244;28;20224;-83
2022/11/24 02:11:29;;;;;;;10.13;4.77;;;6.40;99.90;;;;;;4991934;28;20710;-83
2022/11/24 02:13:56;;;;;;;7.33;4.80;;;6.40;99.90;;;;;;5008094;28;20247;-83
2022/11/24 02:16:21;;;;;;;10.03;4.30;;;6.40;99.90;;;;;;4992857;28;20551;-83
2022/11/24 02:18:47;;;;;;;10.10;4.67;;;6.40;99.90;;;;;;4992026;28;20678;-83
2022/11/24 02:21:15;;;;;;;5.33;4.40;;;6.40;99.90;;;;;;4993035;28;20180;-82
2022/11/24 02:23:54;;;;;;;9.60;4.60;;;6.40;99.90;;;;;;4991514;28;20192;-83
2022/11/24 02:26:40;;;;;;;6.70;4.10;;;6.40;99.90;;;;;;4991812;28;20182;-83
2022/11/24 02:29:06;;;;;;;10.13;4.80;;;6.40;99.90;;;;;;4991320;28;20266;-83
2022/11/24 02:31:32;;;;;;;9.80;3.97;;;6.40;99.90;;;;;;4992979;28;20185;-83
2022/11/24 02:33:57;;;;;;;12.53;3.87;;;6.50;99.90;;;;;;4993058;28;20176;-83
2022/11/24 02:36:23;;;;;;;10.73;4.00;;;6.50;99.90;;;;;;4992883;28;20189;-83
2022/11/24 02:38:49;;;;;;;10.20;3.37;;;6.50;99.90;;;;;;4992922;28;20208;-83
2022/11/24 02:41:34;;;;;;;6.40;3.20;;;6.50;99.90;;;;;;4992779;28;20177;-83
2022/11/24 02:44:01;;;;;;;9.47;3.70;;;6.50;99.90;;;;;;4992514;28;20646;-83
2022/11/24 02:46:26;;;;;;;7.07;3.60;;;6.50;99.90;;;;;;4994299;28;20180;-83
2022/11/24 02:48:52;;;;;;;8.47;3.50;;;6.50;99.90;;;;;;4996718;28;20213;-83
2022/11/24 02:51:18;;;;;;;7.60;3.20;;;6.60;99.90;;;;;;4995501;28;20228;-83
2022/11/24 02:53:44;;;;;;;8.63;3.40;;;6.60;99.90;;;;;;4995381;28;20181;-83
2022/11/24 02:56:09;;;;;;;12.50;3.90;;;6.60;99.90;;;;;;4996510;28;20269;-83
2022/11/24 02:58:35;;;;;;;7.87;3.50;;;6.60;99.90;;;;;;4996728;28;20190;-83
2022/11/24 03:01:03;;;;;;;7.47;3.50;;;6.60;99.90;;;;;;4996517;28;20605;-83
2022/11/24 03:03:28;;;;;;;8.73;3.23;;;6.60;99.90;;;;;;4995137;28;20678;-83
2022/11/24 03:05:54;;;;;;;7.53;3.80;;;6.60;99.90;;;;;;4995115;28;20185;-82
2022/11/24 03:08:19;;;;;;;9.93;4.10;;;6.60;99.90;;;;;;4995098;28;20215;-83
2022/11/24 03:10:45;;;;;;;8.43;3.53;;;6.60;99.90;;;;;;4996490;28;20200;-83
2022/11/24 03:13:10;;;;;;;6.20;3.07;;;6.60;99.90;;;;;;4995116;28;20184;-83
2022/11/24 03:15:36;;;;;;;4.80;2.93;;;6.60;99.90;;;;;;5011442;28;20668;-83
2022/11/24 03:18:02;;;;;;;8.47;3.60;;;6.50;99.90;;;;;;4994955;28;20186;-83
2022/11/24 03:20:28;;;;;;;7.97;3.20;;;6.60;99.90;;;;;;4996288;28;20281;-83
2022/11/24 03:22:53;;;;;;;11.30;3.87;;;6.60;99.90;;;;;;4995029;28;20580;-83
2022/11/24 03:25:19;;;;;;;11.50;3.57;;;6.50;99.90;;;;;;5011150;28;20193;-83
2022/11/24 03:27:45;;;;;;;7.50;3.27;;;6.50;99.90;;;;;;4994732;28;20194;-83
2022/11/24 03:30:12;;;;;;;8.73;3.43;;;6.40;99.90;;;;;;5011128;28;20714;-83
2022/11/24 03:32:37;;;;;;;9.20;3.77;;;6.40;99.90;;;;;;4995900;28;20626;-83
2022/11/24 03:35:03;;;;;;;10.27;3.53;;;6.30;99.90;;;;;;4994585;28;20683;-83
2022/11/24 03:37:29;;;;;;;11.20;3.47;;;6.30;99.90;;;;;;4994934;28;20204;-83
2022/11/24 03:39:55;;;;;;;10.70;4.10;;;6.30;99.90;;;;;;4994904;28;20202;-83
2022/11/24 03:42:20;;;;;;;9.03;3.93;;;6.30;99.90;;;;;;4994553;28;20182;-82
2022/11/24 03:44:46;;;;;;;10.50;3.93;;;6.30;99.90;;;;;;4994645;28;20177;-83
2022/11/24 03:47:12;;;;;;;11.70;4.20;;;6.30;99.90;;;;;;4994548;28;20232;-83
2022/11/24 03:49:38;;;;;;;7.47;3.50;;;6.30;99.90;;;;;;4994309;28;20215;-83
2022/11/24 03:52:04;;;;;;;8.77;3.97;;;6.30;99.90;;;;;;4994519;28;20171;-83
2022/11/24 03:54:30;;;;;;;8.10;4.10;;;6.30;99.90;;;;;;4994377;28;20178;-83
2022/11/24 03:56:55;;;;;;;10.00;4.10;;;6.40;99.90;;;;;;4995147;28;20181;-83
2022/11/24 03:59:21;;;;;;;9.53;4.23;;;6.40;99.90;;;;;;5010628;28;20199;-83
2022/11/24 04:01:47;;;;;;;10.43;4.10;;;6.40;99.90;;;;;;4994322;28;20185;-83
2022/11/24 04:04:12;;;;;;;11.13;4.17;;;6.40;99.90;;;;;;4995025;28;20179;-83
2022/11/24 04:06:38;;;;;;;11.93;4.67;;;6.50;99.90;;;;;;4993854;28;20178;-83
2022/11/24 04:09:04;;;;;;;13.80;5.30;;;6.50;99.90;;;;;;4994197;28;20205;-83
2022/11/24 04:14:31;;;;;;;11.13;3.93;;;6.60;99.90;;;;;;4992858;28;20251;-83
2022/11/24 04:16:56;;;;;;;9.33;4.27;;;6.60;99.90;;;;;;4993823;28;20209;-83
2022/11/24 04:19:22;;;;;;;12.53;4.57;;;6.70;99.90;;;;;;4995026;28;20572;-83
2022/11/24 04:21:48;;;;;;;12.97;4.53;;;6.70;99.90;;;;;;4993871;28;20181;-83
2022/11/24 04:24:13;;;;;;;11.93;4.43;;;6.70;99.90;;;;;;4993581;28;20218;-83
2022/11/24 04:26:39;;;;;;;12.60;4.17;;;6.70;99.90;;;;;;4993953;28;20663;-83
2022/11/24 04:29:05;;;;;;;11.07;4.17;;;6.80;99.90;;;;;;4994602;28;20218;-82
2022/11/24 04:31:30;;;;;;;10.30;4.80;;;6.80;99.90;;;;;;4995316;28;20179;-83
2022/11/24 04:33:56;;;;;;;13.60;4.53;;;6.80;99.90;;;;;;4993541;28;20190;-83
2022/11/24 04:36:21;;;;;;;11.77;4.73;;;6.80;99.90;;;;;;4993665;28;20183;-83
2022/11/24 04:38:47;;;;;;;12.50;5.07;;;6.70;99.90;;;;;;4993658;28;20179;-83
2022/11/24 04:41:13;;;;;;;11.97;4.67;;;6.70;99.90;;;;;;4993507;28;20707;-83
2022/11/24 04:43:38;;;;;;;11.93;4.93;;;6.70;99.90;;;;;;4994400;28;20198;-83
2022/11/24 04:46:04;;;;;;;12.50;4.40;;;6.70;99.90;;;;;;4993388;28;20277;-83
2022/11/24 04:48:29;;;;;;;9.97;4.53;;;6.70;99.90;;;;;;4994263;28;20202;-83
2022/11/24 04:50:55;;;;;;;11.57;4.47;;;6.70;99.90;;;;;;4993194;28;20237;-83
2022/11/24 04:53:21;;;;;;;11.57;4.70;;;6.70;99.90;;;;;;4993119;28;20183;-83
2022/11/24 04:55:46;;;;;;;10.77;4.97;;;6.70;99.90;;;;;;4993287;28;20206;-83
2022/11/24 04:58:12;;;;;;;10.97;4.20;;;6.80;99.90;;;;;;4993260;28;20328;-83
2022/11/24 05:00:38;;;;;;;10.10;4.53;;;6.80;99.90;;;;;;4993038;28;20206;-83
2022/11/24 05:03:04;;;;;;;10.90;4.20;;;6.80;99.90;;;;;;5009074;28;20186;-83
2022/11/24 05:05:29;;;;;;;11.63;4.50;;;6.80;99.90;;;;;;4993134;28;20653;-83
2022/11/24 05:07:57;;;;;;;10.37;4.37;;;6.70;99.90;;;;;;4992655;28;20236;-83
2022/11/24 05:10:35;;;;;;;12.40;3.87;;;6.80;99.90;;;;;;4993615;28;20203;-83
2022/11/24 05:13:05;;;;;;;9.83;4.10;;;6.80;99.90;;;;;;4992918;28;20183;-83
2022/11/24 05:15:31;;;;;;;14.20;4.93;;;6.80;99.90;;;;;;4992842;28;20175;-83
2022/11/24 05:17:57;;;;;;;10.80;4.37;;;6.80;99.90;;;;;;4992631;28;20668;-83
2022/11/24 05:20:23;;;;;;;14.37;4.87;;;6.80;99.90;;;;;;4993807;28;20195;-83
2022/11/24 05:22:49;;;;;;;9.90;4.63;;;6.90;99.90;;;;;;4992408;28;20190;-83
2022/11/24 05:25:15;;;;;;;10.43;4.77;;;6.90;99.90;;;;;;4992867;28;20183;-83
2022/11/24 05:27:41;;;;;;;10.77;4.83;;;6.80;99.90;;;;;;4993646;28;20182;-83
2022/11/24 05:30:07;;;;;;;14.40;4.97;;;6.80;99.90;;;;;;4992409;28;20210;-83
2022/11/24 05:32:33;;;;;;;13.20;5.43;;;6.80;99.90;;;;;;4992257;28;20187;-83
2022/11/24 05:35:01;;;;;;;10.13;4.43;;;6.90;99.90;;;;;;4992487;28;20181;-83
2022/11/24 05:37:27;;;;;;;9.97;4.60;;;6.90;99.90;;;;;;5008666;28;20194;-83
2022/11/24 05:39:53;;;;;;;17.13;5.17;;;6.90;99.90;;;;;;4992457;28;20233;-83
2022/11/24 05:45:04;;;;;;;13.73;4.40;;;6.90;99.90;;;;;;4993675;28;20213;-83
2022/11/24 05:47:30;;;;;;;13.97;4.20;;;6.90;99.90;;;;;;4992131;28;20189;-83
2022/11/24 05:49:55;;;;;;;12.17;4.27;;;6.90;99.90;;;;;;4992069;28;20219;-83
2022/11/24 05:52:21;;;;;;;10.10;4.33;;;6.90;99.90;;;;;;4992068;28;20175;-84
2022/11/24 05:54:46;;;;;;;12.13;4.93;;;6.90;99.90;;;;;;4993300;28;20567;-83
2022/11/24 05:57:12;;;;;;;12.77;4.60;;;6.90;99.90;;;;;;4993276;28;20184;-83
2022/11/24 05:59:37;;;;;;;12.40;5.10;;;6.90;99.90;;;;;;4993236;28;20210;-83
2022/11/24 06:02:03;;;;;;;14.90;4.70;;;6.90;99.90;;;;;;4992015;28;20190;-83
2022/11/24 06:04:29;;;;;;;13.27;4.67;;;6.90;99.90;;;;;;4993038;28;20187;-83
2022/11/24 06:06:54;;;;;;;11.07;4.50;;;6.90;99.90;;;;;;4991755;28;20190;-83
2022/11/24 06:09:20;;;;;;;11.47;5.10;;;6.90;99.90;;;;;;4993255;28;20211;-83
2022/11/24 06:11:47;;;;;;;14.70;4.83;;;6.90;99.90;;;;;;4991869;28;20666;-83
2022/11/24 06:14:13;;;;;;;11.47;4.10;;;6.90;99.90;;;;;;4991512;28;20248;-83
2022/11/24 06:16:39;;;;;;;13.03;4.70;;;6.90;99.90;;;;;;4991954;28;20187;-83
2022/11/24 06:19:04;;;;;;;10.73;4.43;;;7.00;99.90;;;;;;4993013;28;20203;-83
2022/11/24 06:21:30;;;;;;;13.67;4.80;;;7.00;99.90;;;;;;4991571;28;20183;-83
2022/11/24 06:23:56;;;;;;;12.60;4.73;;;7.10;99.90;;;;;;4991477;28;20537;-83
2022/11/24 06:26:22;;;;;;;12.43;4.43;;;7.10;99.90;;;;;;4991669;28;20179;-82
2022/11/24 06:28:47;;;;;;;13.50;4.90;;;7.10;99.90;;;;;;4992441;28;20198;-83
2022/11/24 06:31:13;;;;;;;17.27;4.97;;;7.00;99.90;;;;;;5081098;23;20268;-83
2022/11/24 06:33:39;;;;;;;17.23;4.33;;;7.00;99.90;;;;;;5031179;28;20228;-83
2022/11/24 06:36:07;;;;;;;14.17;4.43;;;7.00;99.90;;;;;;5033398;28;20170;-83
2022/11/24 06:38:34;;;;;;;11.43;4.30;;;7.00;99.90;;;;;;5031858;28;20174;-83
2022/11/24 06:41:02;;;;;;;11.47;5.00;;;7.00;99.90;;;;;;5031918;28;20190;-83
2022/11/24 06:43:28;;;;;;;14.10;5.07;;;7.00;99.90;;;;;;5031455;28;20177;-83
2022/11/24 06:45:54;;;;;;;11.73;4.80;;;7.00;99.90;;;;;;5032327;28;20590;-82
2022/11/24 06:48:20;;;;;;;12.47;4.70;;;7.00;99.90;;;;;;5031494;28;20232;-84
2022/11/24 06:50:45;;;;;;;8.93;4.17;;;7.10;99.90;;;;;;5031738;28;20581;-83
2022/11/24 06:53:11;;;;;;;11.80;4.53;;;7.10;99.90;;;;;;5031374;28;20180;-83
2022/11/24 06:55:38;;;;;;;13.87;5.20;;;7.00;99.90;;;;;;5032592;28;20166;-83
2022/11/24 06:58:03;;;;;;;15.13;5.10;;;7.00;99.90;;;;;;5031798;28;20181;-82
2022/11/24 07:00:30;;;;;;;10.13;4.40;;;7.00;99.90;;;;;;5031842;28;20207;-83
2022/11/24 07:02:57;;;;;;;12.17;4.80;;;7.00;99.90;;;;;;5032872;28;20192;-83
2022/11/24 07:05:23;;;;;;;10.93;5.47;;;7.00;99.90;;;;;;5033055;28;20648;-83
2022/11/24 07:07:49;;;;;;;14.83;4.83;;;7.00;99.90;;;;;;5031530;28;20185;-83
2022/11/24 07:10:15;;;;;;;13.33;5.23;;;7.00;99.90;;;;;;5031689;28;20233;-83
2022/11/24 07:12:40;;;;;;;13.03;5.13;;;7.00;99.90;;;;;;5032871;28;20173;-83
2022/11/24 07:15:06;;;;;;;12.43;4.73;;;7.00;99.90;;;;;;5032614;28;20177;-83
2022/11/24 07:17:38;;;;;;;15.63;4.63;;;7.00;99.90;;;;;;5047887;28;20174;-82
2022/11/24 07:20:05;;;;;;;15.67;4.87;;;7.00;99.90;;;;;;5031250;28;20198;-83
2022/11/24 07:22:30;;;;;;;15.93;4.80;;;7.00;99.90;;;;;;5031807;28;20186;-79
2022/11/24 07:24:56;;;;;;;14.50;5.00;;;7.00;99.90;;;;;;5031819;28;20268;-80
2022/11/24 07:27:22;;;;;;;12.63;5.17;;;7.00;99.90;;;;;;5032466;28;20181;-81
2022/11/24 07:29:47;;;;;;;14.07;4.73;;;7.10;99.90;;;;;;5032991;28;20210;-80
2022/11/24 07:32:13;;;;;;;15.47;4.40;;;7.00;99.90;;;;;;5034061;28;20177;-77
2022/11/24 07:34:38;;;;;;;14.50;4.13;;;7.10;99.90;;;;;;5035406;28;20193;-82
2022/11/24 07:37:04;;;;;;;13.40;4.57;;;7.10;99.90;;;;;;5034620;28;20192;-81
2022/11/24 07:39:29;;;;;;;14.73;4.40;;;7.10;99.90;;;;;;5036801;28;20282;-80
2022/11/24 07:41:56;;;;;;;15.37;4.37;;;7.10;99.90;;;;;;5037497;28;20179;-82
2022/11/24 07:44:22;;;;;;;12.73;4.30;;;7.10;99.90;;;;;;5035327;28;20177;-82
2022/11/24 07:46:50;;;;;;;12.87;4.20;;;7.20;99.90;;;;;;5035314;28;20185;-83
2022/11/24 07:49:15;;;;;;;12.27;3.80;;;7.20;99.90;;;;;;5033777;28;20208;-82
2022/11/24 07:51:41;;;;;;;9.80;4.23;;;7.30;99.90;;;;;;5020266;28;20171;-82
2022/11/24 07:54:07;;;;;;;17.07;4.30;;;7.30;99.90;;;;;;5016135;28;20211;-83
2022/11/24 07:56:32;;;;;;;20.47;4.10;;;7.30;99.90;;;;;;5016923;28;20181;-82
2022/11/24 07:58:58;;;;;;;16.67;4.17;;;7.30;99.90;;;;;;5016342;28;20186;-82
2022/11/24 08:01:24;;;;;;;13.77;4.23;;;7.40;99.90;;;;;;5016523;28;20198;-82
2022/11/24 08:03:49;;;;;;;11.23;3.60;;;7.40;99.90;;;;;;5018089;28;20171;-83
2022/11/24 08:06:15;;;;;;;14.87;4.33;;;7.40;99.90;;;;;;5021502;28;20167;-82
2022/11/24 08:08:41;;;;;;;14.93;4.40;;;7.40;99.90;;;;;;5022759;28;20217;-82
2022/11/24 08:11:09;;;;;;;9.80;4.00;;;7.40;99.90;;;;;;5014675;28;20202;-82
2022/11/24 08:13:36;;;;;;;14.43;4.63;;;7.40;99.90;;;;;;5015731;28;20182;-82
2022/11/24 08:16:06;;;;;;;12.93;3.73;;;7.50;99.90;;;;;;5014585;28;20239;-83
2022/11/24 08:18:33;;;;;;;10.50;3.60;;;7.50;99.90;;;;;;5015977;28;20246;-82
2022/11/24 08:20:59;;;;;;;11.60;3.77;;;7.40;99.90;;;;;;5014349;28;20202;-83
2022/11/24 08:23:25;;;;;;;10.10;3.47;;;7.50;99.90;;;;;;5015704;28;20178;-83
2022/11/24 08:25:50;;;;;;;11.70;3.37;;;7.50;99.90;;;;;;5015821;28;20183;-83
2022/11/24 08:28:16;;;;;;;9.90;3.33;;;7.50;99.90;;;;;;5015298;28;20294;-84
2022/11/24 08:30:41;;;;;;;11.23;3.80;;;7.50;99.90;;;;;;5031381;28;20202;-83
2022/11/24 08:33:07;;;;;;;13.60;3.83;;;7.60;99.90;;;;;;5034087;28;20178;-82
2022/11/24 08:35:36;;;;;;;12.20;3.93;;;7.60;99.90;;;;;;5034442;28;20203;-83
2022/11/24 08:38:01;;;;;;;13.30;3.70;;;7.70;99.90;;;;;;5035324;28;20178;-83
2022/11/24 08:40:27;;;;;;;15.03;5.70;;;7.70;99.90;;;;;;5033662;28;20605;-82
2022/11/24 08:42:57;;;;;;;13.37;3.97;;;7.70;99.90;;;;;;5034637;28;20174;-83
2022/11/24 08:45:22;;;;;;;9.00;3.63;;;7.70;99.90;;;;;;5033208;28;20177;-83
2022/11/24 08:47:53;;;;;;;10.50;4.30;;;7.70;99.90;;;;;;5034770;28;20181;-83
2022/11/24 08:50:19;;;;;;;11.33;3.73;;;7.70;99.90;;;;;;5033455;28;20687;-83
2022/11/24 08:52:44;;;;;;;14.03;5.03;;;7.70;99.90;;;;;;5033250;28;20170;-83
2022/11/24 08:55:10;;;;;;;15.93;4.93;;;7.70;99.90;;;;;;5034727;28;20185;-83
2022/11/24 08:57:36;;;;;;;12.37;3.67;;;7.70;99.90;;;;;;5034764;28;20170;-83
2022/11/24 09:00:03;;;;;;;12.47;3.50;;;7.70;99.90;;;;;;5033642;28;20292;-83
2022/11/24 09:02:28;;;;;;;9.90;3.13;;;7.70;99.90;;;;;;5033262;28;20580;-83
2022/11/24 09:04:54;;;;;;;10.70;3.60;;;7.70;99.90;;;;;;5033380;28;20652;-83
2022/11/24 09:07:19;;;;;;;16.67;3.97;;;7.70;99.90;;;;;;5034397;28;20178;-81
2022/11/24 09:09:45;;;;;;;9.30;3.00;;;7.70;99.90;;;;;;5034692;28;20204;-82
2022/11/24 09:12:11;;;;;;;11.30;3.33;;;7.70;99.90;;;;;;5034289;28;20171;-82
2022/11/24 09:14:36;;;;;;;13.20;3.73;;;7.70;99.90;;;;;;5033362;28;20178;-82
2022/11/24 09:17:02;;;;;;;8.97;3.30;;;7.70;99.90;;;;;;5033579;28;20186;-83
2022/11/24 09:19:27;;;;;;;7.07;3.03;;;7.70;99.90;;;;;;5026041;28;20183;-80
2022/11/24 09:21:53;;;;;;;10.13;3.23;;;7.70;99.90;;;;;;5031832;28;20238;-84
2022/11/24 09:24:18;;;;;;;9.17;3.43;;;7.70;99.90;;;;;;5033194;28;20204;-83
2022/11/24 09:26:44;;;;;;;12.07;3.03;;;7.70;99.90;;;;;;5033163;28;20183;-83
2022/11/24 09:29:10;;;;;;;12.73;3.63;;;7.70;99.90;;;;;;5033234;28;20216;-83
2022/11/24 09:31:38;;;;;;;9.53;3.10;;;7.70;99.90;;;;;;5034558;28;20193;-83
2022/11/24 09:34:05;;;;;;;11.20;4.00;;;7.80;99.90;;;;;;5034231;28;20170;-83
2022/11/24 09:36:31;;;;;;;13.53;3.93;;;7.80;99.90;;;;;;5025991;28;20646;-83
2022/11/24 09:38:57;;;;;;;11.40;3.30;;;7.80;99.90;;;;;;5032398;28;20217;-84
2022/11/24 09:41:32;;;;;;;13.13;3.30;;;7.80;99.90;;;;;;5032938;28;20224;-84
2022/11/24 09:44:15;;;;;;;9.47;3.70;;;7.80;99.90;;;;;;5030831;28;20194;-84
2022/11/24 09:46:50;;;;;;;16.27;4.87;;;7.80;99.90;;;;;;5034366;28;20258;-84
2022/11/24 09:49:29;;;;;;;10.40;3.30;;;7.80;99.90;;;;;;5034302;28;20204;-83
2022/11/24 09:51:55;;;;;;;11.47;3.37;;;7.80;99.90;;;;;;5021803;28;20282;-83
2022/11/24 09:54:27;;;;;;;9.47;3.07;;;7.80;99.90;;;;;;5012776;28;20175;-83
2022/11/24 09:56:54;;;;;;;6.70;2.90;;;7.80;99.90;;;;;;5014626;28;20157;-83
2022/11/24 09:59:21;;;;;;;12.53;6.10;;;7.80;99.90;;;;;;5019777;28;20691;-83
2022/11/24 10:01:48;;;;;;;12.70;5.20;;;7.80;99.90;;;;;;5021018;28;20202;-82
2022/11/24 10:04:23;;;;;;;9.83;4.23;;;7.70;99.90;;;;;;5014032;28;20171;-84
2022/11/24 10:06:53;;;;;;;9.93;4.60;;;7.70;99.90;;;;;;5027177;28;20189;-84
2022/11/24 10:09:40;;;;;;;8.90;4.23;;;7.70;99.90;;;;;;5017608;28;20198;-84
2022/11/24 10:12:25;;;;;;;12.17;3.77;;;7.70;99.90;;;;;;5018201;28;20675;-84
2022/11/24 10:15:03;;;;;;;13.03;7.50;;;7.70;99.90;;;;;;5033266;28;20177;-84
2022/11/24 10:17:59;;;;;;;9.13;6.03;;;7.70;99.90;;;;;;5033237;28;20170;-84
2022/11/24 10:20:49;;;;;;;7.30;4.10;;;7.70;99.90;;;;;;5033131;28;20190;-83
2022/11/24 10:23:49;;;;;;;10.43;5.40;;;7.70;99.90;;;;;;5031930;28;20205;-84
2022/11/24 10:26:29;;;;;;;10.53;3.13;;;7.70;99.90;;;;;;5023848;28;20301;-84
2022/11/24 10:28:55;;;;;;;6.87;2.80;;;7.70;99.90;;;;;;5022112;28;20191;-84
2022/11/24 10:31:29;;;;;;;7.93;2.60;;;7.70;99.90;;;;;;5032829;28;20240;-84
2022/11/24 10:34:00;;;;;;;5.40;2.53;;;7.70;99.90;;;;;;5014497;28;20198;-84
2022/11/24 10:36:49;;;;;;;4.47;2.10;;;7.70;99.90;;;;;;5012364;28;20266;-83
2022/11/24 10:39:56;;;;;;;7.43;2.97;;;7.70;99.90;;;;;;5012053;28;20193;-84
2022/11/24 10:42:32;;;;;;;8.70;2.97;;;7.80;99.90;;;;;;5011256;28;20220;-83
2022/11/24 10:45:21;;;;;;;6.83;3.13;;;7.80;99.90;;;;;;5013046;28;20189;-83
2022/11/24 10:47:47;;;;;;;7.10;3.20;;;7.80;99.90;;;;;;5012994;28;20215;-83
2022/11/24 10:50:13;;;;;;;6.20;3.17;;;7.70;99.90;;;;;;5022113;28;20556;-81
2022/11/24 10:52:57;;;;;;;8.53;3.27;;;7.70;99.90;;;;;;5025520;28;20222;-81
2022/11/24 10:55:22;;;;;;;7.23;3.30;;;7.70;99.90;;;;;;5024411;28;20179;-82
2022/11/24 10:57:48;;;;;;;7.30;3.23;;;7.70;99.90;;;;;;5016132;28;20182;-83
2022/11/24 11:00:20;;;;;;;11.00;3.77;;;7.70;99.90;;;;;;5012827;28;20194;-83
2022/11/24 11:02:48;;;;;;;8.83;3.77;;;7.80;99.90;;;;;;5024066;28;20178;-81
2022/11/24 11:05:42;;;;;;;6.00;2.97;;;7.90;99.90;;;;;;5023334;28;20183;-83
2022/11/24 11:08:15;;;;;;;10.20;4.10;;;8.00;99.90;;;;;;5034976;28;20158;-83
2022/11/24 11:10:43;;;;;;;7.10;3.07;;;8.00;99.90;;;;;;5036215;28;20197;-84
2022/11/24 11:13:29;;;;;;;7.77;3.20;;;8.10;99.90;;;;;;5036272;28;20170;-82
2022/11/24 11:15:56;;;;;;;6.80;2.33;;;8.20;99.90;;;;;;5017209;28;20191;-83
2022/11/24 11:18:28;;;;;;;9.37;3.03;;;8.20;99.90;;;;;;5028820;28;20177;-83
2022/11/24 11:20:56;;;;;;;4.27;2.50;;;8.20;99.90;;;;;;5043613;28;20217;-83
2022/11/24 11:23:26;;;;;;;4.63;2.77;;;8.30;99.90;;;;;;5044673;28;20179;-83
2022/11/24 11:26:23;;;;;;;6.43;2.50;;;8.30;99.90;;;;;;5035809;28;20198;-84
2022/11/24 11:29:07;;;;;;;5.63;2.80;;;8.40;99.90;;;;;;5035423;28;20198;-83
2022/11/24 11:31:34;;;;;;;8.23;3.80;;;8.40;99.90;;;;;;5035217;28;20209;-83
2022/11/24 11:34:09;;;;;;;10.07;5.17;;;8.30;99.90;;;;;;5021709;28;20185;-83
2022/11/24 11:36:46;;;;;;;8.33;3.93;;;8.30;99.90;;;;;;5015300;28;20176;-83
2022/11/24 11:39:36;;;;;;;8.10;2.93;;;8.20;99.90;;;;;;5016563;28;20261;-85
2022/11/24 11:42:23;;;;;;;4.30;2.47;;;8.20;99.90;;;;;;5011442;28;20190;-83
2022/11/24 11:45:04;;;;;;;5.80;2.77;;;8.20;99.90;;;;;;5015123;28;20183;-84
2022/11/24 11:47:38;;;;;;;5.67;2.63;;;8.10;99.90;;;;;;5016996;28;20176;-83
2022/11/24 11:50:16;;;;;;;4.03;2.70;;;8.10;99.90;;;;;;5015148;28;20213;-84
2022/11/24 11:53:05;;;;;;;8.90;2.63;;;8.10;99.90;;;;;;5015033;28;20198;-83
2022/11/24 11:55:43;;;;;;;6.77;2.50;;;8.20;99.90;;;;;;5016597;28;20270;-83
2022/11/24 11:58:27;;;;;;;5.13;2.50;;;8.20;99.90;;;;;;5015382;28;20173;-83
2022/11/24 12:01:25;;;;;;;11.13;5.00;;;8.20;99.90;;;;;;5015348;28;20212;-84
2022/11/24 12:04:15;;;;;;;7.23;2.60;;;8.30;99.90;;;;;;4998587;28;20179;-83
2022/11/24 12:07:08;;;;;;;6.50;2.30;;;8.30;99.90;;;;;;5015816;28;20176;-83
2022/11/24 12:09:58;;;;;;;5.10;2.40;;;8.30;99.90;;;;;;5021620;28;20208;-83
2022/11/24 12:12:38;;;;;;;4.50;2.30;;;8.30;99.90;;;;;;5035941;28;20183;-83
2022/11/24 12:15:16;;;;;;;13.63;7.27;;;8.40;99.90;;;;;;5035821;28;20285;-83
2022/11/24 12:17:41;;;;;;;12.53;5.87;;;8.40;99.90;;;;;;5035775;28;20159;-84
2022/11/24 12:20:21;;;;;;;5.80;2.97;;;8.50;99.90;;;;;;5034232;28;20571;-83
2022/11/24 12:23:01;;;;;;;6.30;2.60;;;8.50;99.90;;;;;;5036918;28;20181;-83
2022/11/24 12:25:37;;;;;;;6.97;2.47;;;8.50;99.90;;;;;;5036784;28;20236;-84
2022/11/24 12:28:31;;;;;;;4.37;2.10;;;8.40;99.90;;;;;;5037860;28;20170;-83
2022/11/24 12:31:05;;;;;;;4.47;2.43;;;8.40;99.90;;;;;;5019127;23;20243;-83
2022/11/24 12:33:47;;;;;;;5.50;2.27;;;8.50;99.90;;;;;;4994221;28;20250;-83
2022/11/24 12:36:15;;;;;;;4.57;2.57;;;8.50;99.90;;;;;;4993317;28;20178;-83
2022/11/24 12:38:56;;;;;;;5.47;2.40;;;8.50;99.90;;;;;;4993455;28;20173;-85
2022/11/24 12:41:37;;;;;;;3.33;1.83;;;8.50;99.90;;;;;;4994690;28;20677;-86
2022/11/24 12:44:08;;;;;;;5.43;2.00;;;8.50;99.90;;;;;;4994194;28;20613;-86
2022/11/24 12:47:14;;;;;;;5.50;1.97;;;8.30;99.90;;;;;;4994429;28;20321;-85
2022/11/24 12:50:14;;;;;;;4.87;1.90;;;8.40;99.90;;;;;;4994680;28;20684;-86
2022/11/24 12:52:49;;;;;;;3.73;1.70;;;8.40;99.90;;;;;;4993049;28;20591;-86
2022/11/24 12:55:18;;;;;;;3.67;2.00;;;8.40;99.90;;;;;;4993178;28;20167;-86
2022/11/24 12:57:53;;;;;;;4.97;2.00;;;8.60;99.90;;;;;;4994489;28;20172;-86
2022/11/24 13:00:43;;;;;;;6.20;2.30;;;8.70;99.90;;;;;;4994292;28;20206;-86
2022/11/24 13:03:14;;;;;;;4.97;2.07;;;8.70;99.90;;;;;;4992858;28;20174;-86
2022/11/24 13:06:08;;;;;;;4.40;1.83;;;8.70;99.90;;;;;;4993238;28;20178;-86
2022/11/24 13:08:35;;;;;;;5.27;1.90;;;8.60;99.90;;;;;;4994104;28;20228;-86